Accueil
METAR-TAF:

METAR-TAF

Aéroports :

Cassel, Allemagne

latitude: 51-24N, longitude: 009-23E, altitude: 277 m

Observation

Le bulletin a été fait il y a 24 minutes, à 16:20 UTC
Vent 10 kt de est/nord-est
Température 0°C
Humidité 55%
Pression 1022 hPa
Visibilité 10 km ou plus
Quelques nuages à une hauteur de 4400 ft

METAR: EDVK 221620Z 07010KT 9999 FEW044 M00/M08 Q1022

Heure: 17:44 (16:44 UTC)

Prévision

Le bulletin a été fait il y a 2 heures et 44 minutes, à 14:00 UTC
Prévision valable du 22 à 15 UTC au 22 à 24 UTC
Vent 12 kt de est/nord-est
Visibilité 10 km ou plus
Nuages épars à une hauteur de 3500 ft
Evoluant progressivement
du 22 à 18 UTC au 22 à 20 UTC
Vent 7 kt de est/nord-est

TAF: EDVK 221400Z 2215/2224 06012KT 9999 SCT035 BECMG 2218/2220 06007KT

Observations et prévisions météorologiques de plus de 4000 aéroports (messages METAR et TAF).

Les stations disponibles sont représentées par des disques jaunes et rouges sur la carte.

Passer la souris dessus pour voir le nom de la station.

Cliquer dessus pour voir les observations et prévisions météorologiques.

Pour changer de carte: cliquez sur les boutons verts avec une croix noire pour zoomer, sur le bouton vert avec un tiret pour effectuer un zoom arrière, ou sur les flèches vertes pour les cartes adjacentes.


METAR-TAF: